createdAt,value
2023-05-14T00:00:40.555Z,74.28
2023-05-14T00:04:27.619Z,73.44
2023-05-14T00:08:15.300Z,73.35
2023-05-14T00:11:42.694Z,75.79
2023-05-14T00:15:03.299Z,74.67
2023-05-14T00:18:25.334Z,74.60
2023-05-14T00:25:54.308Z,74.43
2023-05-14T00:29:24.156Z,73.87
2023-05-14T00:32:41.264Z,74.21
2023-05-14T00:36:28.422Z,73.73
2023-05-14T00:40:19.314Z,73.64
2023-05-14T00:43:33.687Z,73.70
2023-05-14T00:47:23.319Z,73.86
2023-05-14T00:51:16.279Z,74.25
2023-05-14T00:55:08.281Z,73.95
2023-05-14T00:58:29.286Z,73.92
2023-05-14T01:02:02.957Z,74.21
2023-05-14T01:06:05.303Z,74.27
2023-05-14T01:09:21.657Z,74.18
2023-05-14T01:12:56.318Z,74.14
2023-05-14T01:19:53.288Z,75.32
2023-05-14T01:23:22.294Z,74.85
2023-05-14T01:26:58.326Z,74.82
2023-05-14T01:30:56.255Z,74.98
2023-05-14T01:33:55.472Z,74.98
2023-05-14T01:36:23.847Z,75.03
2023-05-14T01:39:21.331Z,75.12
2023-05-14T01:43:20.332Z,75.13
2023-05-14T01:47:21.334Z,75.10
2023-05-14T01:51:04.253Z,74.91
2023-05-14T01:54:16.315Z,74.58
2023-05-14T01:57:49.244Z,74.49
2023-05-14T02:01:20.371Z,75.49
2023-05-14T02:04:38.273Z,75.33
2023-05-14T02:07:53.347Z,74.97
2023-05-14T02:11:39.641Z,75.39
2023-05-14T02:15:12.333Z,76.90
2023-05-14T02:19:03.332Z,75.59
2023-05-14T02:22:49.307Z,75.51
2023-05-14T02:26:14.277Z,74.92
2023-05-14T02:29:58.308Z,74.94
2023-05-14T02:33:22.251Z,74.81
2023-05-14T02:36:49.314Z,75.77
2023-05-14T02:40:42.335Z,75.61
2023-05-14T02:44:22.296Z,76.05
2023-05-14T02:48:18.293Z,75.64
2023-05-14T02:52:26.318Z,76.90
2023-05-14T02:56:27.366Z,76.94
2023-05-14T03:00:22.462Z,76.75
2023-05-14T03:03:11.544Z,76.83
2023-05-14T03:05:39.918Z,76.41
2023-05-14T03:08:07.847Z,76.66
2023-05-14T03:11:11.637Z,76.50
2023-05-14T03:14:34.349Z,76.25
2023-05-14T03:18:16.399Z,76.42
2023-05-14T03:22:05.306Z,76.23
2023-05-14T03:25:14.160Z,76.41
2023-05-14T03:28:36.306Z,76.33
2023-05-14T03:32:30.321Z,76.00
2023-05-14T03:36:26.850Z,76.19
2023-05-14T03:40:21.869Z,76.27
2023-05-14T03:44:19.354Z,76.25
2023-05-14T03:51:53.311Z,76.94
2023-05-14T03:55:37.332Z,76.63
2023-05-14T03:59:26.268Z,75.91
2023-05-14T04:06:48.299Z,75.72
2023-05-14T04:10:57.342Z,75.35
2023-05-14T04:15:01.292Z,75.34
2023-05-14T04:18:59.376Z,75.11
2023-05-14T04:22:58.265Z,75.22
2023-05-14T04:26:59.355Z,74.95
2023-05-14T04:30:38.338Z,74.60
2023-05-14T04:34:28.310Z,74.01
2023-05-14T04:38:32.324Z,73.14
2023-05-14T04:42:47.299Z,72.99
2023-05-14T04:46:51.334Z,72.90
2023-05-14T04:50:23.477Z,72.33
2023-05-14T04:54:15.323Z,71.61
2023-05-14T04:58:01.321Z,72.23
2023-05-14T05:02:12.257Z,70.02
2023-05-14T05:05:43.313Z,70.65
2023-05-14T05:09:20.281Z,69.65
2023-05-14T05:13:32.322Z,68.37
2023-05-14T05:20:26.333Z,66.70
2023-05-14T05:24:04.373Z,65.62
2023-05-14T05:28:09.311Z,65.40
2023-05-14T05:31:20.382Z,65.24
2023-05-14T05:34:57.313Z,63.59
2023-05-14T05:38:49.286Z,63.43
2023-05-14T05:43:13.338Z,63.46
2023-05-14T05:46:42.286Z,61.97
2023-05-14T05:50:21.572Z,62.35
2023-05-14T05:54:12.319Z,62.63
2023-05-14T06:01:27.354Z,62.33
2023-05-14T06:05:14.390Z,62.26
2023-05-14T06:08:27.332Z,62.38
2023-05-14T06:11:50.277Z,62.36
2023-05-14T06:15:38.335Z,62.05
2023-05-14T06:18:47.282Z,61.50
2023-05-14T06:22:14.308Z,61.59
2023-05-14T06:26:25.281Z,61.43
2023-05-14T06:29:28.647Z,61.65
2023-05-14T06:33:14.628Z,58.57
2023-05-14T06:36:38.513Z,57.20
2023-05-14T06:40:19.317Z,55.09
2023-05-14T06:44:32.310Z,55.56
2023-05-14T06:48:38.349Z,54.31
2023-05-14T06:52:24.688Z,53.72
2023-05-14T06:56:33.422Z,52.98
2023-05-14T07:00:06.914Z,52.31
2023-05-14T07:03:09.326Z,52.61
2023-05-14T07:06:58.419Z,52.80
2023-05-14T07:09:26.663Z,53.55
2023-05-14T07:11:55.632Z,53.01
2023-05-14T07:14:43.417Z,53.86
2023-05-14T07:17:15.239Z,53.80
2023-05-14T07:19:43.751Z,52.82
2023-05-14T07:22:11.969Z,51.53
2023-05-14T07:24:40.107Z,51.64
2023-05-14T07:27:09.051Z,51.30
2023-05-14T07:29:37.309Z,51.02
2023-05-14T07:32:05.662Z,50.68
2023-05-14T07:34:34.473Z,51.00
2023-05-14T07:37:03.481Z,50.02
2023-05-14T07:39:38.851Z,49.19
2023-05-14T07:42:07.230Z,49.38
2023-05-14T07:44:37.546Z,49.50
2023-05-14T07:47:07.671Z,49.32
2023-05-14T07:49:37.244Z,49.25
2023-05-14T07:52:05.668Z,46.85
2023-05-14T07:54:36.725Z,46.51
2023-05-14T07:57:07.497Z,46.56
2023-05-14T07:59:36.147Z,46.76
2023-05-14T08:02:04.419Z,47.19
2023-05-14T08:04:32.904Z,46.87
2023-05-14T08:07:09.727Z,46.40
2023-05-14T08:09:37.873Z,47.23
2023-05-14T08:12:10.055Z,46.98
2023-05-14T08:14:37.965Z,46.44
2023-05-14T08:17:06.477Z,46.25
2023-05-14T08:19:35.158Z,46.10
2023-05-14T08:22:05.588Z,46.31
2023-05-14T08:24:38.476Z,46.08
2023-05-14T08:27:07.363Z,45.37
2023-05-14T08:29:37.922Z,43.78
2023-05-14T08:32:22.114Z,43.33
2023-05-14T08:34:52.367Z,43.70
2023-05-14T08:37:28.534Z,45.02
2023-05-14T08:39:57.181Z,45.19
2023-05-14T08:42:35.189Z,44.48
2023-05-14T08:45:05.804Z,43.14
2023-05-14T08:47:35.303Z,41.60
2023-05-14T08:50:07.542Z,41.27
2023-05-14T08:52:44.532Z,41.44
2023-05-14T08:55:12.999Z,41.15
2023-05-14T08:57:41.183Z,41.65
2023-05-14T09:00:13.452Z,40.90
2023-05-14T09:02:42.798Z,41.72
2023-05-14T09:05:11.119Z,40.61
2023-05-14T09:07:42.891Z,39.00
2023-05-14T09:10:11.488Z,39.36
2023-05-14T09:12:40.105Z,40.62
2023-05-14T09:15:08.638Z,41.15
2023-05-14T09:17:51.667Z,41.37
2023-05-14T09:20:37.348Z,41.40
2023-05-14T09:23:27.164Z,41.21
2023-05-14T09:25:55.030Z,41.05
2023-05-14T09:29:10.572Z,40.60
2023-05-14T09:32:38.760Z,40.21
2023-05-14T09:36:01.833Z,39.66
2023-05-14T09:39:09.813Z,39.55
2023-05-14T09:42:23.393Z,39.63
2023-05-14T09:46:11.672Z,39.10
2023-05-14T09:49:40.502Z,39.15
2023-05-14T09:52:56.076Z,39.50
2023-05-14T09:56:24.775Z,38.55
2023-05-14T09:59:42.347Z,38.23
2023-05-14T10:03:06.465Z,37.99
2023-05-14T10:06:37.359Z,38.82
2023-05-14T10:09:16.937Z,39.37
2023-05-14T10:12:46.326Z,38.15
2023-05-14T10:16:26.992Z,37.68
2023-05-14T10:19:55.176Z,37.82
2023-05-14T10:23:24.693Z,37.20
2023-05-14T10:26:14.964Z,37.33
2023-05-14T10:29:24.110Z,36.90
2023-05-14T10:32:29.649Z,36.94
2023-05-14T10:35:01.703Z,37.84
2023-05-14T10:37:31.094Z,37.52
2023-05-14T10:40:06.220Z,36.92
2023-05-14T10:43:14.212Z,37.68
2023-05-14T10:45:46.049Z,36.92
2023-05-14T10:48:14.628Z,37.65
2023-05-14T10:50:43.781Z,38.17
2023-05-14T10:53:14.019Z,38.29
2023-05-14T10:55:47.344Z,38.49
2023-05-14T10:58:16.831Z,38.89
2023-05-14T11:00:49.913Z,38.71
2023-05-14T11:03:18.826Z,37.96
2023-05-14T11:05:51.274Z,38.54
2023-05-14T11:08:23.954Z,38.74
2023-05-14T11:11:11.560Z,37.66
2023-05-14T11:13:39.892Z,37.64
2023-05-14T11:16:21.563Z,37.84
2023-05-14T11:19:07.752Z,38.39
2023-05-14T11:21:37.923Z,38.02
2023-05-14T11:24:07.370Z,37.64
2023-05-14T11:26:36.587Z,38.23
2023-05-14T11:29:08.626Z,38.36
2023-05-14T11:31:36.873Z,38.44
2023-05-14T11:34:07.114Z,38.46
2023-05-14T11:36:36.747Z,38.62
2023-05-14T11:39:06.016Z,38.79
2023-05-14T11:41:34.005Z,38.72
2023-05-14T11:44:03.289Z,38.41
2023-05-14T11:46:31.670Z,38.53
2023-05-14T11:48:59.469Z,38.99
2023-05-14T11:51:27.340Z,39.15
2023-05-14T11:53:55.343Z,38.87
2023-05-14T11:56:23.493Z,38.01
2023-05-14T11:58:57.589Z,36.70
2023-05-14T12:01:25.681Z,36.48
2023-05-14T12:03:53.625Z,36.59
2023-05-14T12:06:21.820Z,36.67
2023-05-14T12:08:49.943Z,36.80
2023-05-14T12:11:31.819Z,36.97
2023-05-14T12:14:00.644Z,37.82
2023-05-14T12:16:32.728Z,38.55
2023-05-14T12:19:05.855Z,39.03
2023-05-14T12:21:36.604Z,40.01
2023-05-14T12:24:20.184Z,40.45
2023-05-14T12:26:51.824Z,41.37
2023-05-14T12:29:22.168Z,41.93
2023-05-14T12:31:51.165Z,41.84
2023-05-14T12:34:21.126Z,42.16
2023-05-14T12:36:52.911Z,42.43
2023-05-14T12:39:21.083Z,42.45
2023-05-14T12:41:49.697Z,42.77
2023-05-14T12:44:18.823Z,42.52
2023-05-14T12:46:49.933Z,42.58
2023-05-14T12:49:21.496Z,42.60
2023-05-14T12:52:22.705Z,43.02
2023-05-14T12:55:00.701Z,43.28
2023-05-14T12:57:30.629Z,43.90
2023-05-14T12:59:58.606Z,44.01
2023-05-14T13:02:29.098Z,44.62
2023-05-14T13:05:07.262Z,45.90
2023-05-14T13:07:37.317Z,45.86
2023-05-14T13:10:23.548Z,46.28
2023-05-14T13:12:54.120Z,47.39
2023-05-14T13:15:27.433Z,47.62
2023-05-14T13:18:15.110Z,48.61
2023-05-14T13:20:59.744Z,49.62
2023-05-14T13:23:33.959Z,49.56
2023-05-14T13:26:05.873Z,50.97
2023-05-14T13:29:06.352Z,51.19
2023-05-14T13:31:53.749Z,51.84
2023-05-14T13:34:37.716Z,52.25
2023-05-14T13:37:45.397Z,53.00
2023-05-14T13:40:28.436Z,52.90
2023-05-14T13:43:07.798Z,51.93
2023-05-14T13:45:53.438Z,52.00
2023-05-14T13:48:29.591Z,51.95
2023-05-14T13:54:27.489Z,52.48
2023-05-14T13:57:14.530Z,52.43
2023-05-14T13:59:47.982Z,52.90
2023-05-14T14:02:23.047Z,53.10
2023-05-14T14:04:51.667Z,53.29
2023-05-14T14:07:27.006Z,52.54
2023-05-14T14:10:41.356Z,52.59
2023-05-14T14:13:13.571Z,51.81
2023-05-14T14:15:44.187Z,51.99
2023-05-14T14:18:12.852Z,51.64
2023-05-14T14:20:59.534Z,51.40
2023-05-14T14:23:44.161Z,51.00
2023-05-14T14:26:12.667Z,50.47
2023-05-14T14:28:55.388Z,50.33
2023-05-14T14:32:22.343Z,50.31
2023-05-14T14:35:03.660Z,49.73
2023-05-14T14:37:33.759Z,49.07
2023-05-14T14:40:07.489Z,49.19
2023-05-14T14:42:37.549Z,49.25
2023-05-14T14:45:14.097Z,48.38
2023-05-14T14:47:46.028Z,48.46
2023-05-14T14:50:44.384Z,49.11
2023-05-14T14:53:14.192Z,48.86
2023-05-14T14:55:42.249Z,48.69
2023-05-14T14:58:14.330Z,48.70
2023-05-14T15:00:43.528Z,48.92
2023-05-14T15:03:19.019Z,49.16
2023-05-14T15:05:48.337Z,49.00
2023-05-14T15:08:32.569Z,49.00
2023-05-14T15:11:10.325Z,49.72
2023-05-14T15:13:40.138Z,50.35
2023-05-14T15:16:16.043Z,50.23
2023-05-14T15:19:17.462Z,50.03
2023-05-14T15:21:45.884Z,49.84
2023-05-14T15:24:13.907Z,49.54
2023-05-14T15:26:57.789Z,48.74
2023-05-14T15:30:25.329Z,49.00
2023-05-14T15:33:43.866Z,49.02
2023-05-14T15:36:39.610Z,48.40
2023-05-14T15:40:10.789Z,48.39
2023-05-14T15:43:59.609Z,49.00
2023-05-14T15:47:10.278Z,48.95
2023-05-14T15:50:57.644Z,49.08
2023-05-14T15:53:47.121Z,49.13
2023-05-14T15:57:28.860Z,49.50
2023-05-14T16:00:25.116Z,50.13
2023-05-14T16:03:56.208Z,50.55
2023-05-14T16:07:16.578Z,50.21
2023-05-14T16:10:43.314Z,49.62
2023-05-14T16:14:12.316Z,49.55
2023-05-14T16:17:41.184Z,49.19
2023-05-14T16:21:14.279Z,48.59
2023-05-14T16:24:44.702Z,48.82
2023-05-14T16:27:38.478Z,49.00
2023-05-14T16:31:13.296Z,49.07
2023-05-14T16:34:30.749Z,49.15
2023-05-14T16:37:59.569Z,49.22
2023-05-14T16:40:52.753Z,49.37
2023-05-14T16:43:52.793Z,49.46
2023-05-14T16:47:02.162Z,49.58
2023-05-14T16:49:30.134Z,49.47
2023-05-14T16:51:58.312Z,49.67
2023-05-14T16:54:26.570Z,49.60
2023-05-14T16:56:56.069Z,49.53
2023-05-14T16:59:25.080Z,49.71
2023-05-14T17:01:55.716Z,49.67
2023-05-14T17:04:26.597Z,49.80
2023-05-14T17:06:54.883Z,49.67
2023-05-14T17:09:22.696Z,49.48
2023-05-14T17:11:50.866Z,49.64
2023-05-14T17:14:18.760Z,49.97
2023-05-14T17:16:46.818Z,49.62
2023-05-14T17:19:14.856Z,49.80
2023-05-14T17:21:42.840Z,49.91
2023-05-14T17:24:10.699Z,49.87
2023-05-14T17:26:38.576Z,49.80
2023-05-14T17:29:06.415Z,49.43
2023-05-14T17:31:34.400Z,49.15
2023-05-14T17:34:02.274Z,49.14
2023-05-14T17:36:31.585Z,49.17
2023-05-14T17:38:59.421Z,48.87
2023-05-14T17:41:27.282Z,48.63
2023-05-14T17:43:55.204Z,48.68
2023-05-14T17:46:23.370Z,48.65
2023-05-14T17:48:51.324Z,48.38
2023-05-14T17:51:19.250Z,48.63
2023-05-14T17:53:47.303Z,48.65
2023-05-14T17:56:17.556Z,48.68
2023-05-14T17:58:46.198Z,48.38
2023-05-14T18:01:14.182Z,48.20
2023-05-14T18:03:42.356Z,48.16
2023-05-14T18:06:10.574Z,47.94
2023-05-14T18:08:38.397Z,47.88
2023-05-14T18:11:06.284Z,47.29
2023-05-14T18:13:34.107Z,46.96
2023-05-14T18:16:02.205Z,47.05
2023-05-14T18:18:31.612Z,46.70
2023-05-14T18:20:59.526Z,46.33
2023-05-14T18:23:27.348Z,46.51
2023-05-14T18:25:57.529Z,46.24
2023-05-14T18:28:26.442Z,46.32
2023-05-14T18:30:54.317Z,46.28
2023-05-14T18:33:22.206Z,46.32
2023-05-14T18:35:50.124Z,46.54
2023-05-14T18:38:19.325Z,46.52
2023-05-14T18:40:49.452Z,46.45
2023-05-14T18:43:18.711Z,46.50
2023-05-14T18:45:47.430Z,46.43
2023-05-14T18:48:16.380Z,46.50
2023-05-14T18:50:44.294Z,46.49
2023-05-14T18:53:12.122Z,46.55
2023-05-14T18:55:40.148Z,46.54
2023-05-14T18:58:08.282Z,46.54
2023-05-14T19:00:36.130Z,46.57
2023-05-14T19:03:04.090Z,46.74
2023-05-14T19:05:32.216Z,46.40
2023-05-14T19:08:00.886Z,46.86
2023-05-14T19:10:28.856Z,46.77
2023-05-14T19:12:57.534Z,46.94
2023-05-14T19:15:25.892Z,47.12
2023-05-14T19:17:54.172Z,47.32
2023-05-14T19:20:22.167Z,47.42
2023-05-14T19:22:50.339Z,47.20
2023-05-14T19:25:18.217Z,47.27
2023-05-14T19:27:50.498Z,47.24
2023-05-14T19:30:19.896Z,47.37
2023-05-14T19:32:47.758Z,47.51
2023-05-14T19:35:15.648Z,47.53
2023-05-14T19:37:43.497Z,47.66
2023-05-14T19:40:11.455Z,47.72
2023-05-14T19:42:39.283Z,48.02
2023-05-14T19:45:07.485Z,48.03
2023-05-14T19:47:35.334Z,48.03
2023-05-14T19:50:03.384Z,48.37
2023-05-14T19:52:31.342Z,48.51
2023-05-14T19:54:59.171Z,48.65
2023-05-14T19:57:27.055Z,48.78
2023-05-14T19:59:54.882Z,48.74
2023-05-14T20:02:22.864Z,48.89
2023-05-14T20:04:51.591Z,48.71
2023-05-14T20:07:20.156Z,48.89
2023-05-14T20:09:48.042Z,48.94
2023-05-14T20:12:16.734Z,49.01
2023-05-14T20:14:44.850Z,49.35
2023-05-14T20:17:12.964Z,49.55
2023-05-14T20:19:41.239Z,49.53
2023-05-14T20:22:09.260Z,49.75
2023-05-14T20:24:37.134Z,50.02
2023-05-14T20:27:07.530Z,49.96
2023-05-14T20:29:35.594Z,49.92
2023-05-14T20:32:03.539Z,49.98
2023-05-14T20:34:31.548Z,50.05
2023-05-14T20:36:59.382Z,50.18
2023-05-14T20:39:27.158Z,50.20
2023-05-14T20:41:55.029Z,50.43
2023-05-14T20:44:22.900Z,50.24
2023-05-14T20:46:51.132Z,50.36
2023-05-14T20:49:19.061Z,50.70
2023-05-14T20:51:46.909Z,50.61
2023-05-14T20:54:14.791Z,50.92
2023-05-14T20:56:42.718Z,51.09
2023-05-14T20:59:10.571Z,51.10
2023-05-14T21:01:38.493Z,51.29
2023-05-14T21:04:07.022Z,51.27
2023-05-14T21:06:35.312Z,51.19
2023-05-14T21:09:03.149Z,51.25
2023-05-14T21:11:31.057Z,51.58
2023-05-14T21:13:58.867Z,51.47
2023-05-14T21:16:26.911Z,51.58
2023-05-14T21:18:54.827Z,51.61
2023-05-14T21:21:23.085Z,51.69
2023-05-14T21:23:50.931Z,51.75
2023-05-14T21:26:21.579Z,51.67
2023-05-14T21:28:49.450Z,51.73
2023-05-14T21:31:17.398Z,51.96
2023-05-14T21:33:45.324Z,51.79
2023-05-14T21:36:13.419Z,52.02
2023-05-14T21:38:41.452Z,52.04
2023-05-14T21:41:09.329Z,51.96
2023-05-14T21:43:37.234Z,51.96
2023-05-14T21:46:05.161Z,52.13
2023-05-14T21:48:33.655Z,52.00
2023-05-14T21:51:02.019Z,52.17
2023-05-14T21:53:29.847Z,52.08
2023-05-14T21:55:57.798Z,52.09
2023-05-14T21:58:26.680Z,52.29
2023-05-14T22:00:54.564Z,52.25
2023-05-14T22:03:22.637Z,52.35
2023-05-14T22:05:51.539Z,52.89
2023-05-14T22:08:19.338Z,52.87
2023-05-14T22:10:47.507Z,52.76
2023-05-14T22:13:17.581Z,52.78
2023-05-14T22:15:48.449Z,52.97
2023-05-14T22:18:18.185Z,53.15
2023-05-14T22:20:47.963Z,53.06
2023-05-14T22:23:15.977Z,52.94
2023-05-14T22:25:43.769Z,52.88
2023-05-14T22:28:11.677Z,53.26
2023-05-14T22:30:39.540Z,52.93
2023-05-14T22:33:07.357Z,53.20
2023-05-14T22:35:35.374Z,53.11
2023-05-14T22:38:03.206Z,53.03
2023-05-14T22:40:31.045Z,52.87
2023-05-14T22:42:58.926Z,52.81
2023-05-14T22:45:27.028Z,52.94
2023-05-14T22:47:55.006Z,53.47
2023-05-14T22:50:22.825Z,53.33
2023-05-14T22:52:54.497Z,53.79
2023-05-14T22:55:22.401Z,53.49
2023-05-14T22:57:50.371Z,53.57
2023-05-14T23:00:18.710Z,53.78
2023-05-14T23:02:46.776Z,53.73
2023-05-14T23:05:15.006Z,53.69
2023-05-14T23:07:43.079Z,53.66
2023-05-14T23:10:11.400Z,53.58
2023-05-14T23:12:39.276Z,53.62
2023-05-14T23:15:07.608Z,53.65
2023-05-14T23:17:35.492Z,53.47
2023-05-14T23:20:05.716Z,53.42
2023-05-14T23:22:33.603Z,53.49
2023-05-14T23:25:01.512Z,53.59
2023-05-14T23:27:29.447Z,54.10
2023-05-14T23:29:57.349Z,54.10
2023-05-14T23:32:25.286Z,53.86
2023-05-14T23:34:53.171Z,54.00
2023-05-14T23:37:21.638Z,54.04
2023-05-14T23:39:49.582Z,54.06
2023-05-14T23:42:17.543Z,54.27
2023-05-14T23:44:45.450Z,54.03
2023-05-14T23:47:13.521Z,54.02
2023-05-14T23:50:27.966Z,53.93
2023-05-14T23:53:47.432Z,54.10
2023-05-14T23:57:22.376Z,53.93
